Time;durP1;ratioP1;P1;durP2;ratioP2;P2;SDS_P1;SDS_P2;PMS_P1;PMS_P2;Temp;Humidity;BMP_temperature;BMP_pressure;BME280_temperature;BME280_humidity;BME280_pressure;Samples;Min_cycle;Max_cycle;Signal;HPM_P1;HPM_P2
2022/05/29 00:00:57;;;;;;;;;;;;;;;24.11;23.91;99146.50;5094652;28;19920;-70
2022/05/29 00:03:22;;;;;;;;;;;;;;;24.10;23.95;99144.09;5094698;28;19927;-70
2022/05/29 00:05:47;;;;;;;;;;;;;;;24.10;24.10;99150.34;5094989;28;19920;-70
2022/05/29 00:08:14;;;;;;;;;;;;;;;24.10;24.23;99149.53;5094924;28;20349;-70
2022/05/29 00:10:40;;;;;;;;;;;;;;;24.11;24.15;99156.59;5076532;28;19916;-70
2022/05/29 00:13:05;;;;;;;;;;;;;;;24.10;24.29;99153.06;5094926;28;19920;-70
2022/05/29 00:15:30;;;;;;;;;;;;;;;24.11;24.04;99146.50;5094560;28;19916;-70
2022/05/29 00:17:55;;;;;;;;;;;;;;;24.12;24.20;99150.03;5094465;28;19981;-70
2022/05/29 00:20:21;;;;;;;;;;;;;;;24.11;24.28;99145.69;5094816;28;19916;-70
2022/05/29 00:22:46;;;;;;;;;;;;;;;24.09;24.27;99148.72;5094739;28;19938;-70
2022/05/29 00:25:11;;;;;;;;;;;;;;;24.11;24.29;99153.88;5094362;28;20004;-70
2022/05/29 00:27:36;;;;;;;;;;;;;;;24.11;24.20;99151.13;5094189;28;20077;-70
2022/05/29 00:30:02;;;;;;;;;;;;;;;24.10;24.20;99158.53;5094227;28;19927;-70
2022/05/29 00:32:28;;;;;;;;;;;;;;;24.09;24.32;99156.91;5094168;28;19927;-70
2022/05/29 00:34:53;;;;;;;;;;;;;;;24.10;24.38;99155.81;5094435;28;19948;-70
2022/05/29 00:37:18;;;;;;;;;;;;;;;24.09;24.32;99159.63;5094480;28;19927;-70
2022/05/29 00:39:43;;;;;;;;;;;;;;;24.10;24.31;99160.47;5094195;28;19916;-70
2022/05/29 00:42:10;;;;;;;;;;;;;;;24.10;24.30;99161.25;5094393;28;19920;-70
2022/05/29 00:44:35;;;;;;;;;;;;;;;24.09;24.17;99162.38;5076114;28;19920;-70
2022/05/29 00:47:10;;;;;;;;;;;;;;;24.09;24.36;99156.91;5093962;28;19917;-70
2022/05/29 00:49:36;;;;;;;;;;;;;;;24.09;24.25;99156.91;5094221;28;20267;-70
2022/05/29 00:52:09;;;;;;;;;;;;;;;24.10;24.01;99161.25;5094259;28;19923;-70
2022/05/29 00:54:42;;;;;;;;;;;;;;;24.09;24.20;99159.63;5093900;28;19923;-70
2022/05/29 00:57:07;;;;;;;;;;;;;;;24.09;24.14;99154.19;5094375;28;19989;-70
2022/05/29 00:59:33;;;;;;;;;;;;;;;24.09;24.34;99154.19;5093833;28;20343;-70
2022/05/29 01:01:58;;;;;;;;;;;;;;;24.08;24.22;99165.44;5094321;28;19916;-70
2022/05/29 01:04:23;;;;;;;;;;;;;;;24.09;24.23;99154.19;5094278;28;20320;-70
2022/05/29 01:06:49;;;;;;;;;;;;;;;24.09;24.35;99154.19;5094475;28;19926;-70
2022/05/29 01:09:14;;;;;;;;;;;;;;;24.09;24.38;99151.44;5094134;28;20369;-70
2022/05/29 01:11:42;;;;;;;;;;;;;;;24.09;24.37;99154.19;5094107;28;20268;-70
2022/05/29 01:14:11;;;;;;;;;;;;;;;24.09;24.54;99156.91;5094116;28;20019;-70
2022/05/29 01:16:36;;;;;;;;;;;;;;;24.09;24.68;99162.38;5094260;28;19916;-70
2022/05/29 01:19:10;;;;;;;;;;;;;;;24.10;24.30;99160.47;5094631;28;20278;-70
2022/05/29 01:22:05;;;;;;;;;;;;;;;24.08;24.30;99160.78;5098665;28;19916;-70
2022/05/29 01:24:36;;;;;;;;;;;;;;;24.08;24.54;99162.69;5016197;28;19921;-70
2022/05/29 01:27:07;;;;;;;;;;;;;;;24.09;24.58;99165.09;5017081;28;19924;-70
2022/05/29 01:29:32;;;;;;;;;;;;;;;24.08;24.55;99163.50;5016616;28;19917;-69
2022/05/29 01:32:00;;;;;;;;;;;;;;;24.07;24.64;99164.59;5016388;28;19990;-69
2022/05/29 01:34:27;;;;;;;;;;;;;;;24.09;24.57;99173.28;4999720;28;19917;-70
2022/05/29 01:37:11;;;;;;;;;;;;;;;24.10;24.68;99172.19;5017856;28;20055;-69
2022/05/29 01:39:51;;;;;;;;;;;;;;;24.08;24.78;99171.69;5015867;28;19964;-70
2022/05/29 01:42:20;;;;;;;;;;;;;;;24.08;24.41;99171.69;4999363;28;19917;-70
2022/05/29 01:44:50;;;;;;;;;;;;;;;24.09;24.48;99181.47;4999151;28;20358;-70
2022/05/29 01:47:20;;;;;;;;;;;;;;;24.08;24.43;99179.88;4998992;28;19918;-70
2022/05/29 01:49:48;;;;;;;;;;;;;;;24.10;24.46;99179.56;4998899;28;20475;-70
2022/05/29 01:52:15;;;;;;;;;;;;;;;24.10;24.64;99187.75;5015355;28;20340;-70
2022/05/29 01:54:48;;;;;;;;;;;;;;;24.09;24.30;99178.75;5015196;28;20012;-70
2022/05/29 01:57:13;;;;;;;;;;;;;;;24.09;24.41;99181.47;5015090;28;20343;-70
2022/05/29 01:59:38;;;;;;;;;;;;;;;24.09;24.37;99181.47;5020876;28;19917;-70
2022/05/29 02:02:05;;;;;;;;;;;;;;;24.09;24.32;99181.47;5116922;28;20247;-70
2022/05/29 02:04:30;;;;;;;;;;;;;;;24.08;24.21;99179.88;5117440;28;19915;-70
2022/05/29 02:09:40;;;;;;;;;;;;;;;24.08;24.50;99185.31;5138277;27;19984;-70
2022/05/29 02:12:06;;;;;;;;;;;;;;;24.08;24.45;99188.06;5119908;27;20326;-70
2022/05/29 02:14:36;;;;;;;;;;;;;;;24.09;24.50;99184.19;5137790;27;20062;-70
2022/05/29 02:17:03;;;;;;;;;;;;;;;24.08;24.51;99190.78;5138164;27;19922;-70
2022/05/29 02:19:29;;;;;;;;;;;;;;;24.09;24.65;99189.66;5119853;27;20014;-70
2022/05/29 02:21:58;;;;;;;;;;;;;;;24.09;24.59;99191.59;5120451;27;20003;-70
2022/05/29 02:24:24;;;;;;;;;;;;;;;24.09;24.51;99189.66;5112716;28;19919;-70
2022/05/29 02:26:58;;;;;;;;;;;;;;;24.09;24.54;99195.13;5116160;28;19915;-70
2022/05/29 02:29:23;;;;;;;;;;;;;;;24.08;24.37;99198.97;5116991;28;19962;-75
2022/05/29 02:31:51;;;;;;;;;;;;;;;24.07;24.59;99194.63;5115880;28;19924;-75
2022/05/29 02:34:28;;;;;;;;;;;;;;;24.08;24.68;99201.72;5117681;28;19939;-75
2022/05/29 02:37:15;;;;;;;;;;;;;;;24.08;24.56;99196.25;5117408;28;19919;-75
2022/05/29 02:39:46;;;;;;;;;;;;;;;24.08;24.55;99207.16;5116061;28;19916;-75
2022/05/29 02:42:29;;;;;;;;;;;;;;;24.09;24.61;99206.03;5117124;28;19939;-75
2022/05/29 02:45:05;;;;;;;;;;;;;;;24.08;24.57;99209.91;5116819;28;19962;-75
2022/05/29 02:47:34;;;;;;;;;;;;;;;24.07;24.56;99211.00;5115806;28;19915;-75
2022/05/29 02:50:22;;;;;;;;;;;;;;;24.08;24.79;99220.81;5116743;28;19915;-75
2022/05/29 02:52:52;;;;;;;;;;;;;;;24.06;24.86;99220.31;5110627;28;20373;-75
2022/05/29 02:55:17;;;;;;;;;;;;;;;24.07;24.83;99221.91;5115493;28;20297;-75
2022/05/29 02:57:42;;;;;;;;;;;;;;;24.08;24.74;99223.53;5116530;28;19915;-75
2022/05/29 03:00:13;;;;;;;;;;;;;;;24.09;24.85;99224.34;5107801;28;19916;-75
2022/05/29 03:02:46;;;;;;;;;;;;;;;24.09;24.74;99224.34;5096825;28;19993;-75
2022/05/29 03:05:24;;;;;;;;;;;;;;;24.08;24.86;99228.19;5078003;28;19916;-75
2022/05/29 03:08:02;;;;;;;;;;;;;;;24.08;24.78;99237.19;5096319;28;20019;-75
2022/05/29 03:10:29;;;;;;;;;;;;;;;24.08;25.02;99233.66;5096218;28;19920;-76
2022/05/29 03:12:58;;;;;;;;;;;;;;;24.08;24.91;99234.44;5095901;28;20010;-75
2022/05/29 03:15:32;;;;;;;;;;;;;;;24.07;24.90;99235.56;5096249;28;19923;-75
2022/05/29 03:18:12;;;;;;;;;;;;;;;24.08;24.75;99234.44;5095794;28;19924;-75
2022/05/29 03:20:40;;;;;;;;;;;;;;;24.06;24.82;99231.22;5095838;28;19920;-72
2022/05/29 03:23:06;;;;;;;;;;;;;;;24.06;24.96;99244.88;5096401;28;19960;-72
2022/05/29 03:25:38;;;;;;;;;;;;;;;24.07;25.13;99249.19;5095656;28;20061;-72
2022/05/29 03:28:04;;;;;;;;;;;;;;;24.08;25.13;99256.28;5077164;28;19974;-72
2022/05/29 03:30:30;;;;;;;;;;;;;;;24.07;25.15;99243.75;5077650;28;19916;-72
2022/05/29 03:32:59;;;;;;;;;;;;;;;24.08;25.35;99252.75;5077602;28;19920;-72
2022/05/29 03:35:25;;;;;;;;;;;;;;;24.06;25.42;99250.34;5095580;28;19916;-72
2022/05/29 03:37:51;;;;;;;;;;;;;;;24.09;25.45;99254.34;5095327;28;19916;-72
2022/05/29 03:40:16;;;;;;;;;;;;;;;24.08;25.40;99252.75;5095508;28;20007;-71
2022/05/29 03:42:42;;;;;;;;;;;;;;;24.07;25.62;99262.84;5094672;28;19920;-71
2022/05/29 03:45:08;;;;;;;;;;;;;;;24.07;25.67;99260.13;5095143;28;19927;-72
2022/05/29 03:47:33;;;;;;;;;;;;;;;24.08;25.56;99261.75;5094968;28;19916;-72
2022/05/29 03:49:58;;;;;;;;;;;;;;;24.07;25.63;99260.13;5095393;28;19920;-72
2022/05/29 03:52:23;;;;;;;;;;;;;;;24.07;25.71;99265.56;5095326;28;19917;-72
2022/05/29 03:54:51;;;;;;;;;;;;;;;24.08;25.97;99277.31;5095232;28;20266;-72
2022/05/29 03:57:16;;;;;;;;;;;;;;;24.08;25.78;99275.41;5095288;28;19916;-72
2022/05/29 03:59:41;;;;;;;;;;;;;;;24.08;25.77;99269.94;5094948;28;19916;-72
2022/05/29 04:02:07;;;;;;;;;;;;;;;24.08;25.93;99272.66;5095277;28;20006;-72
2022/05/29 04:04:32;;;;;;;;;;;;;;;24.08;25.89;99283.59;5095265;28;19916;-72
2022/05/29 04:06:57;;;;;;;;;;;;;;;24.07;26.04;99276.50;5094920;28;19920;-71
2022/05/29 04:12:09;;;;;;;;;;;;;;;24.07;26.12;99278.41;5095495;28;19923;-70
2022/05/29 04:14:36;;;;;;;;;;;;;;;24.07;26.19;99281.94;5095096;28;19994;-70
2022/05/29 04:17:01;;;;;;;;;;;;;;;24.08;26.27;99290.97;5095138;28;19923;-70
2022/05/29 04:19:26;;;;;;;;;;;;;;;24.07;26.47;99284.69;5094846;28;19917;-70
2022/05/29 04:21:51;;;;;;;;;;;;;;;24.07;26.54;99279.22;5095142;28;20019;-70
2022/05/29 04:24:19;;;;;;;;;;;;;;;24.08;26.90;99283.59;5094412;28;19924;-70
2022/05/29 04:26:44;;;;;;;;;;;;;;;24.08;26.54;99283.59;5094698;28;19916;-70
2022/05/29 04:29:10;;;;;;;;;;;;;;;24.08;26.69;99286.31;5094502;28;20274;-70
2022/05/29 04:31:37;;;;;;;;;;;;;;;24.08;26.99;99282.78;5093785;28;21446;-70
2022/05/29 04:34:02;;;;;;;;;;;;;;;24.07;26.67;99287.41;5094228;28;19916;-70
2022/05/29 04:36:27;;;;;;;;;;;;;;;24.07;26.68;99287.41;5094153;28;20334;-70
2022/05/29 04:38:53;;;;;;;;;;;;;;;24.08;26.94;99282.78;5094490;28;19922;-70
2022/05/29 04:41:24;;;;;;;;;;;;;;;24.08;27.05;99282.78;5094105;28;19916;-70
2022/05/29 04:43:50;;;;;;;;;;;;;;;24.08;27.19;99285.50;5077282;28;19916;-70
2022/05/29 04:46:15;;;;;;;;;;;;;;;24.07;27.34;99292.88;5094452;28;19939;-70
2022/05/29 04:48:41;;;;;;;;;;;;;;;24.08;27.52;99294.50;5093952;28;20385;-70
2022/05/29 04:51:06;;;;;;;;;;;;;;;24.09;27.33;99298.03;5094004;28;19916;-70
2022/05/29 04:53:32;;;;;;;;;;;;;;;24.09;27.43;99295.28;5093557;28;19924;-70
2022/05/29 04:55:57;;;;;;;;;;;;;;;24.10;27.50;99303.19;5094197;28;19927;-70
2022/05/29 04:58:23;;;;;;;;;;;;;;;24.08;27.57;99299.16;5093848;28;20019;-70
2022/05/29 05:00:48;;;;;;;;;;;;;;;24.09;27.29;99301.56;5075589;28;19923;-70
2022/05/29 05:03:14;;;;;;;;;;;;;;;24.09;27.60;99301.56;5094021;28;19922;-70
2022/05/29 05:05:39;;;;;;;;;;;;;;;24.09;27.78;99303.47;5094034;28;19916;-70
2022/05/29 05:08:04;;;;;;;;;;;;;;;24.11;27.84;99304.81;5094206;28;20298;-70
2022/05/29 05:10:29;;;;;;;;;;;;;;;24.09;27.99;99309.75;5094020;28;19924;-70
2022/05/29 05:12:55;;;;;;;;;;;;;;;24.10;28.30;99303.19;5075950;28;19920;-70
2022/05/29 05:15:20;;;;;;;;;;;;;;;24.09;28.18;99308.94;5094051;28;19916;-70
2022/05/29 05:17:45;;;;;;;;;;;;;;;24.09;28.46;99303.47;5093584;28;19916;-70
2022/05/29 05:20:11;;;;;;;;;;;;;;;24.10;28.64;99311.38;5093977;28;19919;-71
2022/05/29 05:22:36;;;;;;;;;;;;;;;24.11;28.75;99313.00;5093700;28;20363;-70
2022/05/29 05:25:01;;;;;;;;;;;;;;;24.11;28.95;99310.28;5093522;28;19935;-70
2022/05/29 05:27:26;;;;;;;;;;;;;;;24.10;28.81;99316.84;5075867;28;20374;-70
2022/05/29 05:29:52;;;;;;;;;;;;;;;24.10;29.02;99316.03;5093783;28;20022;-70
2022/05/29 05:32:17;;;;;;;;;;;;;;;24.11;28.90;99323.91;5093623;28;20434;-70
2022/05/29 05:34:42;;;;;;;;;;;;;;;24.12;28.79;99328.25;5093853;28;19920;-70
2022/05/29 05:37:08;;;;;;;;;;;;;;;24.11;28.72;99326.66;5093827;28;19919;-70
2022/05/29 05:39:33;;;;;;;;;;;;;;;24.12;28.85;99322.78;5094238;28;19916;-70
2022/05/29 05:41:58;;;;;;;;;;;;;;;24.15;28.92;99327.66;5093469;28;20362;-70
2022/05/29 05:44:24;;;;;;;;;;;;;;;24.15;28.85;99324.13;5093550;28;19963;-70
2022/05/29 05:46:50;;;;;;;;;;;;;;;24.16;28.73;99329.28;5093922;28;19952;-70
2022/05/29 05:49:16;;;;;;;;;;;;;;;24.18;28.89;99326.22;5093627;28;19956;-70
2022/05/29 05:51:41;;;;;;;;;;;;;;;24.17;28.95;99325.41;5093766;28;19916;-70
2022/05/29 05:54:07;;;;;;;;;;;;;;;24.21;28.78;99338.47;5093638;28;20509;-70
2022/05/29 05:56:32;;;;;;;;;;;;;;;24.22;28.67;99342.81;5093547;28;19924;-71
2022/05/29 05:58:57;;;;;;;;;;;;;;;24.23;28.74;99341.69;5093264;28;19964;-70
2022/05/29 06:01:22;;;;;;;;;;;;;;;24.22;29.01;99337.38;5093305;28;20022;-70
2022/05/29 06:03:48;;;;;;;;;;;;;;;24.22;28.88;99349.06;5093601;28;19920;-70
2022/05/29 06:06:13;;;;;;;;;;;;;;;24.24;28.94;99346.84;5095792;28;20427;-70
2022/05/29 06:08:38;;;;;;;;;;;;;;;24.25;28.95;99353.09;5097589;28;19920;-69
2022/05/29 06:11:03;;;;;;;;;;;;;;;24.24;28.87;99351.50;5097295;28;20322;-71
2022/05/29 06:13:29;;;;;;;;;;;;;;;24.24;28.80;99351.50;5096808;28;19920;-70
2022/05/29 06:15:54;;;;;;;;;;;;;;;24.30;28.46;99361.19;5096780;28;19916;-70
2022/05/29 06:18:19;;;;;;;;;;;;;;;24.32;28.43;99359.00;5097024;28;19923;-71
2022/05/29 06:20:45;;;;;;;;;;;;;;;24.34;28.55;99354.03;5097070;28;19916;-70
2022/05/29 06:23:11;;;;;;;;;;;;;;;24.37;28.28;99356.16;5078632;28;19923;-70
2022/05/29 06:25:38;;;;;;;;;;;;;;;24.37;28.22;99367.09;5096435;28;20381;-76
2022/05/29 06:28:04;;;;;;;;;;;;;;;24.36;28.05;99360.00;5096449;28;19938;-76
2022/05/29 06:30:30;;;;;;;;;;;;;;;24.35;27.87;99364.66;5096872;28;19920;-76
2022/05/29 06:32:55;;;;;;;;;;;;;;;24.36;27.83;99365.44;5096552;28;20371;-76
2022/05/29 06:35:20;;;;;;;;;;;;;;;24.36;27.67;99370.91;5096918;28;19950;-76
2022/05/29 06:37:45;;;;;;;;;;;;;;;24.37;27.47;99364.34;5096798;28;20289;-76
2022/05/29 06:40:11;;;;;;;;;;;;;;;24.37;27.49;99367.09;5078746;28;20375;-76
2022/05/29 06:42:36;;;;;;;;;;;;;;;24.38;27.46;99368.69;5108747;28;20015;-76
2022/05/29 06:45:02;;;;;;;;;;;;;;;24.37;27.09;99369.81;5097070;28;19962;-75
2022/05/29 06:47:28;;;;;;;;;;;;;;;24.39;27.19;99364.84;5096849;28;19955;-75
2022/05/29 06:49:53;;;;;;;;;;;;;;;24.41;27.29;99372.75;5096819;28;20019;-75
2022/05/29 06:52:18;;;;;;;;;;;;;;;24.41;27.37;99378.19;5096754;28;20366;-75
2022/05/29 06:54:43;;;;;;;;;;;;;;;24.40;27.14;99380.09;5096466;28;20019;-76
2022/05/29 06:57:10;;;;;;;;;;;;;;;24.40;27.33;99391.03;5096470;28;19924;-76
2022/05/29 07:07:50;;;;;;;;;;;;;;;24.39;27.39;99394.88;5096118;28;20277;-76
2022/05/29 07:10:15;;;;;;;;;;;;;;;24.40;27.33;99392.97;5096396;28;19999;-76
2022/05/29 07:12:40;;;;;;;;;;;;;;;24.41;27.17;99398.13;5095891;28;20271;-76
2022/05/29 07:15:06;;;;;;;;;;;;;;;24.43;27.25;99395.88;5096096;28;19970;-76
2022/05/29 07:17:31;;;;;;;;;;;;;;;24.42;27.26;99402.44;5076794;28;19916;-76
2022/05/29 07:19:57;;;;;;;;;;;;;;;24.44;27.09;99397.50;5095635;28;20006;-76
2022/05/29 07:22:22;;;;;;;;;;;;;;;24.45;26.93;99401.84;5095671;28;20016;-76
2022/05/29 07:24:47;;;;;;;;;;;;;;;24.46;26.66;99414.41;5095406;28;19934;-76
2022/05/29 07:27:13;;;;;;;;;;;;;;;24.45;26.72;99418.22;5095954;28;19916;-76
2022/05/29 07:29:38;;;;;;;;;;;;;;;24.47;26.39;99416.00;5095642;28;19959;-75
2022/05/29 07:32:04;;;;;;;;;;;;;;;24.47;26.59;99418.72;5077981;28;20006;-75
2022/05/29 07:34:30;;;;;;;;;;;;;;;24.46;26.60;99424.53;5077712;28;20366;-75
2022/05/29 07:37:00;;;;;;;;;;;;;;;24.46;26.64;99425.31;5095479;28;20374;-75
2022/05/29 07:39:26;;;;;;;;;;;;;;;24.48;26.49;99431.28;5095758;28;19920;-75
2022/05/29 07:44:36;;;;;;;;;;;;;;;24.47;26.30;99432.38;5095817;28;19962;-76
2022/05/29 07:47:01;;;;;;;;;;;;;;;24.46;26.38;99428.06;5096399;28;19916;-76
2022/05/29 07:49:27;;;;;;;;;;;;;;;24.47;26.24;99434.31;5107838;28;19922;-75
2022/05/29 07:51:52;;;;;;;;;;;;;;;24.47;26.18;99426.94;5107475;28;19916;-75
2022/05/29 07:54:20;;;;;;;;;;;;;;;24.47;26.26;99424.19;5107669;28;19927;-75
2022/05/29 07:56:45;;;;;;;;;;;;;;;24.49;26.22;99435.66;5107224;28;19917;-75
2022/05/29 07:59:14;;;;;;;;;;;;;;;24.48;25.96;99428.56;5088922;28;19927;-75
2022/05/29 08:01:39;;;;;;;;;;;;;;;24.50;25.98;99437.25;5107031;28;19942;-75
2022/05/29 08:04:04;;;;;;;;;;;;;;;24.49;25.98;99438.38;5104684;28;19920;-76
2022/05/29 08:06:30;;;;;;;;;;;;;;;24.50;25.91;99439.97;5095083;28;20025;-74
2022/05/29 08:08:55;;;;;;;;;;;;;;;24.52;25.72;99434.22;5095170;28;20374;-73
2022/05/29 08:11:20;;;;;;;;;;;;;;;24.50;25.59;99437.25;5094960;28;20358;-73
2022/05/29 08:13:46;;;;;;;;;;;;;;;24.49;25.82;99441.09;5094805;28;19969;-73
2022/05/29 08:16:13;;;;;;;;;;;;;;;24.51;25.62;99441.59;5076736;28;19916;-73
2022/05/29 08:18:39;;;;;;;;;;;;;;;24.51;25.78;99444.34;5094861;28;19939;-73
2022/05/29 08:21:04;;;;;;;;;;;;;;;24.54;25.68;99442.94;5094880;28;20354;-73
2022/05/29 08:23:29;;;;;;;;;;;;;;;24.54;25.64;99448.41;5094464;28;19943;-73
2022/05/29 08:31:22;;;;;;;;;;;;;;;24.57;25.68;99447.81;5094668;28;20021;-73
2022/05/29 08:33:47;;;;;;;;;;;;;;;24.58;25.44;99454.06;5094673;28;19921;-73
2022/05/29 08:36:18;;;;;;;;;;;;;;;24.61;25.53;99450.72;5094518;28;20353;-73
2022/05/29 08:38:44;;;;;;;;;;;;;;;24.61;25.27;99458.94;5076771;28;20339;-73
2022/05/29 08:41:14;;;;;;;;;;;;;;;24.67;25.53;99463.19;5094538;28;19920;-73
2022/05/29 08:43:47;;;;;;;;;;;;;;;24.70;25.44;99465.31;5094618;28;20006;-71
2022/05/29 08:46:14;;;;;;;;;;;;;;;24.72;25.41;99466.63;5094409;28;20011;-71
2022/05/29 08:48:39;;;;;;;;;;;;;;;24.76;25.18;99472.28;5094304;28;19923;-71
2022/05/29 08:51:20;;;;;;;;;;;;;;;24.78;25.35;99464.56;5094645;28;19916;-71
2022/05/29 08:53:46;;;;;;;;;;;;;;;24.79;25.21;99476.34;5075945;28;19991;-70
2022/05/29 08:56:15;;;;;;;;;;;;;;;24.79;25.14;99477.13;5094221;28;19920;-70
2022/05/29 08:58:56;;;;;;;;;;;;;;;24.81;25.08;99476.84;5094133;28;19947;-71
2022/05/29 09:01:44;;;;;;;;;;;;;;;24.83;25.27;99483.59;5093900;28;19916;-71
2022/05/29 09:04:23;;;;;;;;;;;;;;;24.83;25.17;99488.28;5094022;28;20396;-70
2022/05/29 09:06:49;;;;;;;;;;;;;;;24.83;24.92;99478.13;5093622;28;20298;-70
2022/05/29 09:09:18;;;;;;;;;;;;;;;24.87;24.91;99475.59;5093465;28;20366;-70
2022/05/29 09:11:51;;;;;;;;;;;;;;;24.85;24.91;99486.88;5093647;28;19974;-70
2022/05/29 09:14:23;;;;;;;;;;;;;;;24.85;24.99;99486.88;5093781;28;20401;-70
2022/05/29 09:16:50;;;;;;;;;;;;;;;24.86;24.72;99488.47;5093699;28;19927;-70
2022/05/29 09:19:15;;;;;;;;;;;;;;;24.86;24.61;99477.53;5075594;28;20405;-70
2022/05/29 09:21:46;;;;;;;;;;;;;;;24.87;24.83;99481.91;5093870;28;19987;-70
2022/05/29 09:24:13;;;;;;;;;;;;;;;24.88;24.67;99490.91;5093797;28;19927;-70
2022/05/29 09:26:39;;;;;;;;;;;;;;;24.91;24.63;99503.97;5093737;28;20366;-70
2022/05/29 09:29:05;;;;;;;;;;;;;;;24.91;24.58;99506.69;5093502;28;19916;-70
2022/05/29 09:31:30;;;;;;;;;;;;;;;24.92;24.58;99508.28;5094319;28;19916;-70
2022/05/29 09:33:55;;;;;;;;;;;;;;;24.92;24.18;99505.56;5093866;28;19939;-70
2022/05/29 09:36:39;;;;;;;;;;;;;;;24.93;23.99;99510.72;5093704;28;20363;-70
2022/05/29 09:39:22;;;;;;;;;;;;;;;24.94;24.05;99511.56;5093465;28;19920;-70
2022/05/29 09:41:49;;;;;;;;;;;;;;;24.95;23.92;99507.69;5096829;28;20031;-70
2022/05/29 09:44:18;;;;;;;;;;;;;;;24.93;24.05;99515.38;5079793;28;19917;-70
2022/05/29 09:46:44;;;;;;;;;;;;;;;24.94;23.86;99517.03;5097800;28;20370;-70
2022/05/29 09:49:49;;;;;;;;;;;;;;;24.96;24.01;99516.69;5097697;28;19916;-70
2022/05/29 09:52:21;;;;;;;;;;;;;;;24.98;23.98;99522.69;5097291;28;20397;-70
2022/05/29 09:54:50;;;;;;;;;;;;;;;24.97;23.90;99526.50;5097653;28;20255;-70
2022/05/29 09:57:20;;;;;;;;;;;;;;;24.97;24.01;99527.31;5097885;28;19939;-70
2022/05/29 09:59:46;;;;;;;;;;;;;;;24.99;24.02;99519.66;5079094;28;20397;-70
2022/05/29 10:02:15;;;;;;;;;;;;;;;24.98;24.15;99522.69;5079366;28;19916;-70
2022/05/29 10:04:41;;;;;;;;;;;;;;;24.97;24.27;99532.78;5079075;28;20015;-70
2022/05/29 10:07:14;;;;;;;;;;;;;;;24.99;24.42;99524.28;5097137;28;19925;-70
2022/05/29 10:09:59;;;;;;;;;;;;;;;24.99;24.42;99529.75;5097276;28;19943;-70
2022/05/29 10:12:32;;;;;;;;;;;;;;;25.00;24.31;99534.13;5097169;28;19923;-70
2022/05/29 10:14:57;;;;;;;;;;;;;;;25.01;24.54;99527.50;5079099;28;19939;-70
2022/05/29 10:17:25;;;;;;;;;;;;;;;25.06;24.59;99539.19;5096842;28;20370;-70
2022/05/29 10:19:50;;;;;;;;;;;;;;;25.04;24.62;99533.22;5097137;28;19923;-70
2022/05/29 10:22:21;;;;;;;;;;;;;;;25.04;24.34;99538.69;5079184;28;19916;-70
2022/05/29 10:24:47;;;;;;;;;;;;;;;25.05;24.71;99540.28;5078661;28;19920;-70
2022/05/29 10:27:12;;;;;;;;;;;;;;;24.99;24.44;99540.69;5097694;28;19980;-70
2022/05/29 10:29:38;;;;;;;;;;;;;;;25.01;24.53;99543.91;5096733;28;19924;-70
2022/05/29 10:32:07;;;;;;;;;;;;;;;25.00;24.63;99540.38;5097150;28;19916;-70
2022/05/29 10:34:33;;;;;;;;;;;;;;;24.97;24.56;99549.19;5078413;28;20497;-70
2022/05/29 10:36:59;;;;;;;;;;;;;;;24.92;24.73;99547.38;5096800;28;19919;-70
2022/05/29 10:39:25;;;;;;;;;;;;;;;24.96;24.70;99549.47;5096840;28;19965;-70
2022/05/29 10:41:51;;;;;;;;;;;;;;;24.97;24.67;99551.13;5096632;28;19942;-70
2022/05/29 10:44:34;;;;;;;;;;;;;;;24.99;24.55;99559.81;5096918;28;20351;-70
2022/05/29 10:47:12;;;;;;;;;;;;;;;25.03;24.42;99544.44;5096536;28;19920;-70
2022/05/29 10:49:38;;;;;;;;;;;;;;;24.99;24.54;99554.34;5096291;28;20001;-70
2022/05/29 10:52:13;;;;;;;;;;;;;;;24.96;24.57;99552.22;5096234;28;19920;-71
2022/05/29 10:54:50;;;;;;;;;;;;;;;24.92;24.33;99558.31;5096049;28;19920;-70
2022/05/29 10:57:25;;;;;;;;;;;;;;;24.93;24.46;99559.91;5096329;28;19924;-70
2022/05/29 10:59:50;;;;;;;;;;;;;;;24.92;24.65;99557.47;5096014;28;19946;-70
2022/05/29 11:05:24;;;;;;;;;;;;;;;24.87;24.88;99566.63;5096204;28;19927;-70
2022/05/29 11:07:53;;;;;;;;;;;;;;;24.88;24.86;99567.41;5095965;28;19923;-71
2022/05/29 11:10:24;;;;;;;;;;;;;;;24.88;24.72;99570.16;5095824;28;20313;-70
2022/05/29 11:12:58;;;;;;;;;;;;;;;24.86;24.84;99566.91;5096095;28;19916;-70
2022/05/29 11:15:42;;;;;;;;;;;;;;;24.86;25.04;99570.44;5095905;28;20259;-70
2022/05/29 11:18:07;;;;;;;;;;;;;;;24.87;25.04;99572.06;5096105;28;20023;-70
2022/05/29 11:20:32;;;;;;;;;;;;;;;24.86;24.93;99575.13;5095590;28;20378;-70
2022/05/29 11:23:00;;;;;;;;;;;;;;;24.89;24.99;99575.31;5095852;28;19947;-70
2022/05/29 11:25:25;;;;;;;;;;;;;;;24.85;25.17;99579.78;5095412;28;20020;-70
2022/05/29 11:27:59;;;;;;;;;;;;;;;24.86;24.94;99586.03;5095752;28;20376;-70
2022/05/29 11:30:34;;;;;;;;;;;;;;;24.91;24.91;99585.94;5077722;28;20089;-70
2022/05/29 11:33:06;;;;;;;;;;;;;;;24.93;24.73;99586.44;5077704;28;19965;-70
2022/05/29 11:35:46;;;;;;;;;;;;;;;24.91;24.95;99594.16;5095332;28;20028;-70
2022/05/29 11:38:26;;;;;;;;;;;;;;;24.92;24.96;99591.09;5095592;28;19946;-70
2022/05/29 11:40:59;;;;;;;;;;;;;;;24.90;24.82;99590.56;5095566;28;19917;-70
2022/05/29 11:43:25;;;;;;;;;;;;;;;24.86;25.01;99592.31;5095729;28;19944;-70
2022/05/29 11:51:28;;;;;;;;;;;;;;;24.89;24.97;99602.63;5080679;28;20273;-70
2022/05/29 11:54:08;;;;;;;;;;;;;;;24.86;24.87;99599.72;5077880;28;20003;-70
2022/05/29 11:56:33;;;;;;;;;;;;;;;24.86;24.93;99602.44;5096085;28;19916;-70
2022/05/29 11:59:04;;;;;;;;;;;;;;;24.86;24.98;99605.97;5095302;28;19939;-70
2022/05/29 12:01:40;;;;;;;;;;;;;;;24.89;25.30;99613.56;5077177;28;19916;-70
2022/05/29 12:04:06;;;;;;;;;;;;;;;24.87;25.14;99607.59;5076940;28;19916;-70
2022/05/29 12:06:49;;;;;;;;;;;;;;;24.91;25.21;99605.06;5095911;28;19924;-70
2022/05/29 12:09:15;;;;;;;;;;;;;;;24.89;24.93;99619.03;5096045;28;19924;-70
2022/05/29 12:11:47;;;;;;;;;;;;;;;24.89;25.19;99624.50;5096256;28;19923;-70
2022/05/29 12:14:27;;;;;;;;;;;;;;;24.89;24.92;99619.03;5078731;28;19915;-70
2022/05/29 12:17:04;;;;;;;;;;;;;;;24.90;25.00;99606.97;5098234;28;19916;-70
2022/05/29 12:19:31;;;;;;;;;;;;;;;24.91;25.09;99616.81;5095637;28;19956;-70
2022/05/29 12:22:00;;;;;;;;;;;;;;;24.87;24.90;99626.72;5094604;28;19952;-70
2022/05/29 12:24:26;;;;;;;;;;;;;;;24.83;25.33;99633.91;5076282;28;19943;-69
2022/05/29 12:26:59;;;;;;;;;;;;;;;24.83;25.11;99625.69;5094653;28;19923;-70
2022/05/29 12:29:29;;;;;;;;;;;;;;;24.81;25.23;99636.13;5076432;28;19921;-70
2022/05/29 12:31:56;;;;;;;;;;;;;;;24.82;25.05;99631.47;5076302;28;20427;-70
2022/05/29 12:34:32;;;;;;;;;;;;;;;24.80;25.14;99631.78;5076413;28;19961;-70
2022/05/29 12:37:03;;;;;;;;;;;;;;;24.79;25.26;99629.34;5094602;28;19931;-70
2022/05/29 12:39:37;;;;;;;;;;;;;;;24.79;25.21;99637.56;5094086;28;19927;-70
2022/05/29 12:42:20;;;;;;;;;;;;;;;24.79;25.17;99641.09;5094229;28;19920;-70
2022/05/29 12:45:11;;;;;;;;;;;;;;;24.76;25.29;99649.88;5094428;28;20007;-70
2022/05/29 12:47:37;;;;;;;;;;;;;;;24.78;25.29;99650.38;5012125;28;19925;-70
2022/05/29 12:50:08;;;;;;;;;;;;;;;24.75;25.40;99642.81;5012552;28;19918;-71
2022/05/29 12:52:42;;;;;;;;;;;;;;;24.74;25.55;99641.97;5012188;28;20029;-69
2022/05/29 12:55:10;;;;;;;;;;;;;;;24.76;25.44;99652.63;5012069;28;20404;-70
2022/05/29 12:57:54;;;;;;;;;;;;;;;24.75;25.55;99656.47;5011849;28;20335;-69
2022/05/29 13:00:30;;;;;;;;;;;;;;;24.76;25.50;99660.81;5012032;28;19922;-69
2022/05/29 13:03:13;;;;;;;;;;;;;;;24.73;25.47;99664.97;5011827;28;20380;-69
2022/05/29 13:05:57;;;;;;;;;;;;;;;24.72;25.63;99670.72;5011931;28;19921;-69
2022/05/29 13:08:42;;;;;;;;;;;;;;;24.72;25.55;99668.00;5011744;28;19921;-69
2022/05/29 13:11:07;;;;;;;;;;;;;;;24.70;25.65;99664.75;5011736;28;19921;-70
2022/05/29 13:13:41;;;;;;;;;;;;;;;24.70;25.64;99668.28;4995425;28;20340;-70
2022/05/29 13:16:17;;;;;;;;;;;;;;;24.72;25.59;99668.00;4995321;28;19917;-70
2022/05/29 13:21:54;;;;;;;;;;;;;;;24.70;25.70;99670.22;5011822;28;19925;-70
2022/05/29 13:24:19;;;;;;;;;;;;;;;24.71;25.54;99671.81;5049406;28;19973;-70
2022/05/29 13:26:45;;;;;;;;;;;;;;;24.71;25.64;99675.34;5093854;28;19921;-70
2022/05/29 13:29:30;;;;;;;;;;;;;;;24.71;25.58;99671.81;5075775;28;19916;-70